METAR Data
IDs: Format: Raw Decoded Include TAF

Data at: 0605 UTC 03 Jul 2022

KRHV 030450Z 30009KT 10SM OVC020 16/11 A3002 RMK LAST